createdAt,value
2019-01-23T00:01:57.576Z,-3.34
2019-01-23T00:04:28.171Z,-3.35
2019-01-23T00:06:58.776Z,-3.32
2019-01-23T00:09:29.439Z,-3.39
2019-01-23T00:12:00.122Z,-3.44
2019-01-23T00:14:30.733Z,-3.45
2019-01-23T00:17:01.423Z,-3.42
2019-01-23T00:19:32.049Z,-3.37
2019-01-23T00:22:02.714Z,-3.52
2019-01-23T00:24:33.395Z,-3.60
2019-01-23T00:27:04.039Z,-3.61
2019-01-23T00:29:34.708Z,-3.68
2019-01-23T00:32:05.430Z,-3.78
2019-01-23T00:34:36.133Z,-3.83
2019-01-23T00:37:06.837Z,-3.84
2019-01-23T00:39:37.483Z,-3.76
2019-01-23T00:42:08.030Z,-3.73
2019-01-23T00:44:38.673Z,-3.84
2019-01-23T00:47:09.280Z,-3.78
2019-01-23T00:49:39.847Z,-3.83
2019-01-23T00:52:10.478Z,-3.88
2019-01-23T00:54:41.318Z,-3.90
2019-01-23T00:57:11.982Z,-3.91
2019-01-23T00:59:42.597Z,-4.00
2019-01-23T01:02:13.164Z,-4.05
2019-01-23T01:04:43.793Z,-3.99
2019-01-23T01:07:14.395Z,-4.00
2019-01-23T01:09:45.013Z,-3.99
2019-01-23T01:12:15.610Z,-4.07
2019-01-23T01:14:46.231Z,-4.02
2019-01-23T01:17:16.887Z,-4.01
2019-01-23T01:19:47.505Z,-3.94
2019-01-23T01:22:18.105Z,-3.98
2019-01-23T01:24:48.801Z,-4.02
2019-01-23T01:27:19.469Z,-4.05
2019-01-23T01:29:50.029Z,-4.07
2019-01-23T01:32:20.693Z,-4.15
2019-01-23T01:34:51.407Z,-4.16
2019-01-23T01:37:21.997Z,-4.13
2019-01-23T01:39:52.577Z,-4.17
2019-01-23T01:42:23.194Z,-4.10
2019-01-23T01:44:53.783Z,-4.15
2019-01-23T01:47:24.397Z,-4.21
2019-01-23T01:49:54.970Z,-4.24
2019-01-23T01:52:25.572Z,-4.26
2019-01-23T01:54:56.254Z,-4.13
2019-01-23T01:57:26.839Z,-4.18
2019-01-23T01:59:57.363Z,-4.12
2019-01-23T02:02:28.025Z,-4.15
2019-01-23T02:04:58.653Z,-4.24
2019-01-23T02:07:29.276Z,-4.21
2019-01-23T02:09:59.861Z,-4.15
2019-01-23T02:12:30.511Z,-4.10
2019-01-23T02:15:01.089Z,-4.10
2019-01-23T02:17:31.655Z,-4.24
2019-01-23T02:20:02.216Z,-4.33
2019-01-23T02:22:32.780Z,-4.32
2019-01-23T02:25:03.396Z,-4.22
2019-01-23T02:27:33.997Z,-4.21
2019-01-23T02:30:05.924Z,-4.15
2019-01-23T02:32:36.546Z,-4.14
2019-01-23T02:35:08.401Z,-4.24
2019-01-23T02:37:38.941Z,-4.18
2019-01-23T02:40:16.925Z,-4.28
2019-01-23T02:42:47.620Z,-4.35
2019-01-23T02:45:18.932Z,-4.35
2019-01-23T02:47:50.190Z,-4.30
2019-01-23T02:50:20.947Z,-4.35
2019-01-23T02:52:51.532Z,-4.34
2019-01-23T02:55:22.204Z,-4.42
2019-01-23T02:57:52.780Z,-4.49
2019-01-23T03:00:23.448Z,-4.49
2019-01-23T03:02:54.086Z,-4.51
2019-01-23T03:05:24.619Z,-4.53
2019-01-23T03:07:55.201Z,-4.48
2019-01-23T03:10:25.813Z,-4.44
2019-01-23T03:12:56.381Z,-4.39
2019-01-23T03:15:26.978Z,-4.55
2019-01-23T03:17:57.559Z,-4.55
2019-01-23T03:20:28.112Z,-4.62
2019-01-23T03:22:58.650Z,-4.69
2019-01-23T03:25:29.249Z,-4.80
2019-01-23T03:27:59.828Z,-4.76
2019-01-23T03:30:30.438Z,-4.79
2019-01-23T03:33:01.130Z,-4.72
2019-01-23T03:35:31.749Z,-4.87
2019-01-23T05:05:11.467Z,-4.69
2019-01-23T05:07:41.999Z,-4.61
2019-01-23T05:10:12.612Z,-4.59
2019-01-23T05:12:43.168Z,-4.70
2019-01-23T05:15:14.217Z,-4.56
2019-01-23T05:17:44.739Z,-4.45
2019-01-23T05:20:15.379Z,-4.52
2019-01-23T05:22:45.912Z,-4.53
2019-01-23T05:25:16.481Z,-4.59
2019-01-23T05:27:47.041Z,-4.62
2019-01-23T05:30:21.611Z,-4.63
2019-01-23T05:32:52.106Z,-4.61
2019-01-23T05:35:24.008Z,-4.59
2019-01-23T05:37:54.619Z,-4.67
2019-01-23T05:40:25.149Z,-4.75
2019-01-23T05:42:55.706Z,-4.84
2019-01-23T05:45:26.184Z,-4.85
2019-01-23T05:47:57.065Z,-4.87
2019-01-23T05:50:27.573Z,-4.77
2019-01-23T05:52:58.145Z,-4.73
2019-01-23T05:55:28.689Z,-4.73
2019-01-23T05:57:59.236Z,-4.86
2019-01-23T06:00:29.847Z,-4.79
2019-01-23T06:03:00.403Z,-4.84
2019-01-23T06:05:30.965Z,-4.87
2019-01-23T06:08:01.493Z,-4.90
2019-01-23T06:10:32.074Z,-5.07
2019-01-23T06:13:02.594Z,-5.00
2019-01-23T06:15:33.147Z,-5.16
2019-01-23T06:18:03.689Z,-5.10
2019-01-23T06:20:34.230Z,-5.25
2019-01-23T06:23:04.907Z,-5.28
2019-01-23T06:25:35.484Z,-5.28
2019-01-23T06:28:06.932Z,-5.24
2019-01-23T06:30:37.567Z,-5.34
2019-01-23T06:33:08.107Z,-5.11
2019-01-23T06:35:38.756Z,-5.01
2019-01-23T06:38:09.304Z,-5.06
2019-01-23T06:40:40.476Z,-4.91
2019-01-23T06:43:12.661Z,-4.89
2019-01-23T06:45:43.208Z,-5.00
2019-01-23T06:48:13.762Z,-5.08
2019-01-23T06:50:44.387Z,-4.96
2019-01-23T06:53:15.479Z,-4.96
2019-01-23T06:55:46.143Z,-4.91
2019-01-23T06:58:16.666Z,-5.03
2019-01-23T07:00:47.198Z,-4.91
2019-01-23T07:03:17.828Z,-4.98
2019-01-23T07:05:48.466Z,-5.05
2019-01-23T07:08:21.687Z,-5.16
2019-01-23T07:10:52.602Z,-5.08
2019-01-23T07:13:23.467Z,-4.97
2019-01-23T07:15:54.483Z,-4.94
2019-01-23T07:18:25.152Z,-4.96
2019-01-23T07:20:57.095Z,-5.03
2019-01-23T07:23:27.654Z,-5.16
2019-01-23T07:25:58.217Z,-5.23
2019-01-23T07:28:28.699Z,-5.22
2019-01-23T07:30:59.255Z,-5.29
2019-01-23T07:33:30.034Z,-5.05
2019-01-23T07:36:00.569Z,-5.08
2019-01-23T07:38:31.154Z,-5.25
2019-01-23T07:41:01.745Z,-4.99
2019-01-23T07:43:32.267Z,-5.17
2019-01-23T07:46:02.846Z,-5.12
2019-01-23T07:48:33.413Z,-5.23
2019-01-23T07:51:04.019Z,-5.29
2019-01-23T07:53:35.157Z,-5.26
2019-01-23T07:56:05.730Z,-5.11
2019-01-23T07:58:36.214Z,-5.04
2019-01-23T08:01:06.849Z,-5.00
2019-01-23T08:03:37.387Z,-4.98
2019-01-23T08:06:07.912Z,-5.03
2019-01-23T08:08:38.456Z,-4.99
2019-01-23T08:11:08.988Z,-4.92
2019-01-23T08:13:39.573Z,-4.83
2019-01-23T08:16:10.108Z,-4.70
2019-01-23T08:18:40.698Z,-4.94
2019-01-23T08:21:11.191Z,-4.77
2019-01-23T08:23:41.717Z,-4.94
2019-01-23T08:26:12.307Z,-5.03
2019-01-23T08:28:42.806Z,-4.98
2019-01-23T08:31:13.361Z,-4.94
2019-01-23T08:33:43.991Z,-4.89
2019-01-23T08:36:14.507Z,-4.86
2019-01-23T08:38:45.082Z,-4.85
2019-01-23T08:41:15.630Z,-4.79
2019-01-23T08:43:46.173Z,-4.77
2019-01-23T08:46:16.697Z,-4.81
2019-01-23T08:48:48.839Z,-4.65
2019-01-23T08:51:19.401Z,-4.47
2019-01-23T08:53:49.969Z,-4.65
2019-01-23T08:56:20.511Z,-4.61
2019-01-23T08:58:51.058Z,-4.75
2019-01-23T09:01:21.595Z,-4.77
2019-01-23T09:03:52.356Z,-4.92
2019-01-23T09:06:22.887Z,-4.97
2019-01-23T09:08:53.499Z,-4.88
2019-01-23T09:11:24.134Z,-4.80
2019-01-23T09:13:54.693Z,-4.72
2019-01-23T09:16:25.265Z,-4.69
2019-01-23T09:18:56.214Z,-4.55
2019-01-23T09:21:26.737Z,-4.51
2019-01-23T09:23:57.282Z,-4.47
2019-01-23T09:26:27.907Z,-4.45
2019-01-23T09:28:58.416Z,-4.61
2019-01-23T09:32:11.663Z,-4.38
2019-01-23T09:35:31.050Z,-4.08
2019-01-23T09:38:44.276Z,-4.12
2019-01-23T09:41:52.257Z,-3.90
2019-01-23T09:45:22.975Z,-3.89
2019-01-23T09:48:42.067Z,-3.88
2019-01-23T09:52:20.399Z,-3.61
2019-01-23T09:54:50.915Z,-3.68
2019-01-23T09:57:21.564Z,-3.78
2019-01-23T09:59:52.122Z,-3.68
2019-01-23T10:02:22.640Z,-3.65
2019-01-23T10:04:53.301Z,-3.49
2019-01-23T10:07:23.910Z,-3.55
2019-01-23T10:09:54.478Z,-3.50
2019-01-23T10:12:25.100Z,-3.41
2019-01-23T10:14:55.657Z,-3.30
2019-01-23T10:17:26.139Z,-3.51
2019-01-23T10:19:56.718Z,-3.29
2019-01-23T10:22:27.270Z,-3.40
2019-01-23T10:24:57.809Z,-3.59
2019-01-23T10:27:28.348Z,-3.30
2019-01-23T10:29:58.889Z,-3.30
2019-01-23T10:32:29.502Z,-3.33
2019-01-23T10:35:00.000Z,-3.13
2019-01-23T10:37:30.604Z,-3.01
2019-01-23T10:40:01.123Z,-3.38
2019-01-23T10:42:31.651Z,-3.39
2019-01-23T10:45:02.244Z,-3.25
2019-01-23T10:47:32.768Z,-3.26
2019-01-23T10:50:03.332Z,-3.88
2019-01-23T10:52:33.951Z,-3.39
2019-01-23T10:55:05.094Z,-3.35
2019-01-23T10:57:35.633Z,-3.16
2019-01-23T11:00:11.587Z,-2.96
2019-01-23T11:02:42.124Z,-3.18
2019-01-23T11:05:16.231Z,-3.06
2019-01-23T11:07:46.775Z,-2.74
2019-01-23T11:10:20.717Z,-2.66
2019-01-23T11:12:51.255Z,-2.54
2019-01-23T11:15:21.877Z,-2.20
2019-01-23T11:17:52.610Z,-2.41
2019-01-23T11:20:23.352Z,-2.35
2019-01-23T11:22:53.887Z,-2.46
2019-01-23T11:25:24.477Z,-2.57
2019-01-23T11:27:55.212Z,-2.64
2019-01-23T11:30:27.769Z,-2.75
2019-01-23T11:32:58.359Z,-2.76
2019-01-23T11:35:28.901Z,-2.51
2019-01-23T11:37:59.562Z,-2.55
2019-01-23T11:40:32.470Z,-2.69
2019-01-23T11:43:02.994Z,-2.69
2019-01-23T11:45:33.508Z,-2.76
2019-01-23T11:48:04.079Z,-3.14
2019-01-23T11:50:34.628Z,-2.74
2019-01-23T11:53:08.260Z,-2.63
2019-01-23T11:55:38.740Z,-2.60
2019-01-23T11:58:09.322Z,-2.24
2019-01-23T12:00:39.984Z,-2.30
2019-01-23T12:03:10.607Z,-2.19
2019-01-23T12:05:41.154Z,-2.36
2019-01-23T12:08:15.431Z,-2.26
2019-01-23T12:10:49.612Z,-2.48
2019-01-23T12:13:35.306Z,-2.69
2019-01-23T12:16:06.092Z,-2.64
2019-01-23T12:18:36.796Z,-2.59
2019-01-23T12:21:09.774Z,-2.55
2019-01-23T12:23:43.344Z,-2.41
2019-01-23T12:26:13.894Z,-2.42
2019-01-23T12:28:44.467Z,-2.26
2019-01-23T12:31:14.975Z,-2.11
2019-01-23T12:33:45.638Z,-2.28
2019-01-23T12:36:16.180Z,-2.29
2019-01-23T12:38:46.712Z,-2.33
2019-01-23T12:41:17.395Z,-2.40
2019-01-23T12:43:48.064Z,-2.36
2019-01-23T12:46:18.641Z,-2.12
2019-01-23T12:48:49.243Z,-2.36
2019-01-23T12:51:19.777Z,-2.24
2019-01-23T12:53:51.034Z,-2.05
2019-01-23T12:56:21.688Z,-1.86
2019-01-23T12:58:52.636Z,-1.80
2019-01-23T13:01:23.224Z,-1.86
2019-01-23T13:03:53.771Z,-1.91
2019-01-23T13:06:24.378Z,-1.89
2019-01-23T13:08:54.925Z,-1.83
2019-01-23T13:11:25.498Z,-1.85
2019-01-23T13:13:56.035Z,-1.96
2019-01-23T13:16:26.629Z,-1.94
2019-01-23T13:19:11.379Z,-1.89
2019-01-23T13:21:42.319Z,-1.99
2019-01-23T13:24:12.993Z,-1.88
2019-01-23T13:26:43.803Z,-1.94
2019-01-23T13:29:14.595Z,-1.72
2019-01-23T13:31:49.119Z,-1.72
2019-01-23T13:34:17.770Z,-1.79
2019-01-23T13:36:48.414Z,-1.91
2019-01-23T13:39:20.767Z,-1.96
2019-01-23T13:41:51.644Z,-1.81
2019-01-23T13:44:22.390Z,-1.95
2019-01-23T13:46:53.134Z,-1.95
2019-01-23T13:49:24.068Z,-2.02
2019-01-23T13:51:54.689Z,-2.11
2019-01-23T13:54:25.538Z,-2.04
2019-01-23T13:56:56.167Z,-2.00
2019-01-23T13:59:26.889Z,-1.88
2019-01-23T14:01:57.496Z,-1.86
2019-01-23T14:04:28.126Z,-1.97
2019-01-23T14:06:58.717Z,-1.97
2019-01-23T14:09:29.641Z,-1.96
2019-01-23T14:12:00.351Z,-1.76
2019-01-23T14:14:30.993Z,-1.80
2019-01-23T14:17:02.082Z,-1.88
2019-01-23T14:19:32.784Z,-1.87
2019-01-23T14:22:03.392Z,-1.98
2019-01-23T14:24:33.989Z,-2.09
2019-01-23T14:27:04.614Z,-2.17
2019-01-23T14:29:35.256Z,-2.14
2019-01-23T14:32:05.906Z,-2.08
2019-01-23T14:34:36.547Z,-2.14
2019-01-23T14:37:07.221Z,-2.23
2019-01-23T14:39:39.597Z,-2.32
2019-01-23T14:42:14.184Z,-2.33
2019-01-23T14:44:47.795Z,-2.30
2019-01-23T14:47:19.859Z,-2.33
2019-01-23T14:50:10.471Z,-2.41
2019-01-23T14:52:42.075Z,-2.42
2019-01-23T14:55:14.748Z,-2.60
2019-01-23T14:57:46.775Z,-2.53
2019-01-23T15:00:23.564Z,-2.51
2019-01-23T15:02:54.674Z,-2.40
2019-01-23T15:05:26.006Z,-2.62
2019-01-23T15:07:58.550Z,-2.60
2019-01-23T15:10:31.772Z,-2.60
2019-01-23T15:13:03.803Z,-2.76
2019-01-23T15:15:34.751Z,-2.74
2019-01-23T15:18:05.882Z,-2.67
2019-01-23T15:20:40.348Z,-2.98
2019-01-23T15:23:11.692Z,-3.10
2019-01-23T15:25:42.344Z,-3.15
2019-01-23T15:28:13.055Z,-3.36
2019-01-23T15:30:44.090Z,-3.50
2019-01-23T15:33:14.936Z,-3.47
2019-01-23T15:35:45.563Z,-3.45
2019-01-23T15:43:28.216Z,-3.70
2019-01-23T15:45:59.046Z,-3.70
2019-01-23T15:48:29.707Z,-3.82
2019-01-23T15:51:00.288Z,-3.84
2019-01-23T15:53:30.926Z,-3.98
2019-01-23T15:56:01.534Z,-4.02
2019-01-23T15:58:32.231Z,-4.13
2019-01-23T16:01:02.799Z,-4.14
2019-01-23T16:03:33.372Z,-4.18
2019-01-23T16:06:03.952Z,-4.20
2019-01-23T16:08:34.616Z,-4.35
2019-01-23T16:11:05.270Z,-4.36
2019-01-23T16:13:42.050Z,-4.42
2019-01-23T16:16:08.192Z,-4.43
2019-01-23T16:18:39.688Z,-4.61
2019-01-23T16:21:10.354Z,-4.62
2019-01-23T16:23:40.913Z,-4.59
2019-01-23T16:26:11.539Z,-4.58
2019-01-23T16:28:42.094Z,-4.70
2019-01-23T16:31:12.737Z,-4.74
2019-01-23T16:33:43.312Z,-4.75
2019-01-23T16:36:14.048Z,-4.76
2019-01-23T16:38:44.606Z,-4.75
2019-01-23T16:41:15.185Z,-4.83
2019-01-23T16:43:45.774Z,-4.76
2019-01-23T16:46:16.258Z,-4.82
2019-01-23T16:48:46.823Z,-4.90
2019-01-23T16:51:17.353Z,-4.81
2019-01-23T16:53:47.884Z,-4.84
2019-01-23T16:56:19.806Z,-4.88
2019-01-23T16:58:50.339Z,-4.91
2019-01-23T17:01:20.896Z,-4.87
2019-01-23T17:03:51.667Z,-4.90
2019-01-23T17:06:22.239Z,-5.05
2019-01-23T17:08:52.787Z,-5.15
2019-01-23T17:11:23.373Z,-5.26
2019-01-23T17:13:53.988Z,-5.31
2019-01-23T17:16:24.580Z,-5.36
2019-01-23T17:18:55.199Z,-5.36
2019-01-23T17:21:25.779Z,-5.41
2019-01-23T17:23:56.350Z,-5.51
2019-01-23T17:26:27.300Z,-5.62
2019-01-23T17:28:58.198Z,-5.67
2019-01-23T17:31:28.777Z,-5.69
2019-01-23T17:33:59.358Z,-5.71
2019-01-23T17:36:29.917Z,-5.57
2019-01-23T17:39:00.448Z,-5.56
2019-01-23T17:41:31.012Z,-5.55
2019-01-23T17:44:02.046Z,-5.49
2019-01-23T17:46:32.589Z,-5.54
2019-01-23T17:49:03.269Z,-5.52
2019-01-23T17:51:33.816Z,-5.54
2019-01-23T17:54:04.674Z,-5.58
2019-01-23T17:56:35.168Z,-5.58
2019-01-23T17:59:06.322Z,-5.60
2019-01-23T18:01:36.823Z,-5.67
2019-01-23T18:04:07.379Z,-5.64
2019-01-23T18:06:37.948Z,-5.50
2019-01-23T18:09:10.932Z,-5.40
2019-01-23T18:11:41.537Z,-5.35
2019-01-23T18:14:12.068Z,-5.41
2019-01-23T18:16:42.661Z,-5.42
2019-01-23T18:19:13.271Z,-5.59
2019-01-23T18:21:43.762Z,-5.74
2019-01-23T18:24:14.336Z,-5.80
2019-01-23T18:26:44.913Z,-5.87
2019-01-23T18:29:15.504Z,-5.90
2019-01-23T18:32:07.273Z,-5.88
2019-01-23T18:35:03.010Z,-5.92
2019-01-23T18:38:16.273Z,-5.92
2019-01-23T18:41:52.755Z,-5.84
2019-01-23T18:45:01.398Z,-5.86
2019-01-23T18:48:32.284Z,-5.89
2019-01-23T18:51:57.605Z,-5.84
2019-01-23T18:54:28.165Z,-5.89
2019-01-23T18:56:58.702Z,-5.80
2019-01-23T18:59:29.305Z,-5.74
2019-01-23T19:01:59.872Z,-5.78
2019-01-23T19:04:30.422Z,-5.80
2019-01-23T19:07:01.152Z,-5.75
2019-01-23T19:09:31.748Z,-5.70
2019-01-23T19:12:02.324Z,-5.71
2019-01-23T19:14:32.931Z,-5.80
2019-01-23T19:17:03.444Z,-5.86
2019-01-23T19:19:33.959Z,-5.93
2019-01-23T19:22:04.719Z,-5.91
2019-01-23T19:24:35.254Z,-5.90
2019-01-23T19:27:05.926Z,-5.91
2019-01-23T19:29:36.635Z,-5.91
2019-01-23T19:32:07.155Z,-5.99
2019-01-23T19:34:37.764Z,-5.98
2019-01-23T19:37:08.364Z,-6.01
2019-01-23T19:39:38.992Z,-5.96
2019-01-23T19:42:09.543Z,-5.95
2019-01-23T19:44:40.272Z,-5.83
2019-01-23T19:47:10.881Z,-5.83
2019-01-23T19:49:41.735Z,-5.84
2019-01-23T19:52:12.389Z,-5.84
2019-01-23T19:54:42.955Z,-5.80
2019-01-23T19:57:13.952Z,-5.74
2019-01-23T19:59:45.245Z,-5.82
2019-01-23T20:02:15.935Z,-5.67
2019-01-23T20:04:46.513Z,-5.85
2019-01-23T20:07:17.120Z,-5.95
2019-01-23T20:09:47.699Z,-5.86
2019-01-23T20:12:18.388Z,-5.87
2019-01-23T20:14:48.957Z,-5.93
2019-01-23T20:17:19.580Z,-5.89
2019-01-23T20:19:50.223Z,-5.80
2019-01-23T20:22:20.906Z,-5.78
2019-01-23T20:24:51.673Z,-5.82
2019-01-23T20:27:22.483Z,-5.75
2019-01-23T20:29:53.096Z,-5.80
2019-01-23T20:32:23.716Z,-5.83
2019-01-23T20:34:54.437Z,-5.78
2019-01-23T20:37:25.825Z,-5.88
2019-01-23T20:39:56.627Z,-5.97
2019-01-23T20:42:27.314Z,-6.08
2019-01-23T20:44:58.016Z,-6.10
2019-01-23T20:47:29.467Z,-6.06
2019-01-23T20:50:01.801Z,-6.16
2019-01-23T20:52:32.413Z,-6.28
2019-01-23T20:55:03.001Z,-6.33
2019-01-23T20:57:33.521Z,-6.24
2019-01-23T21:00:05.312Z,-6.28
2019-01-23T21:02:35.848Z,-6.36
2019-01-23T21:05:08.701Z,-6.45
2019-01-23T21:07:39.412Z,-6.47
2019-01-23T21:10:12.591Z,-6.60
2019-01-23T21:12:43.200Z,-6.59
2019-01-23T21:15:23.143Z,-6.62
2019-01-23T21:17:53.694Z,-6.57
2019-01-23T21:20:24.294Z,-6.57
2019-01-23T21:22:54.833Z,-6.61
2019-01-23T21:25:25.334Z,-6.72
2019-01-23T21:27:55.990Z,-6.81
2019-01-23T21:30:27.811Z,-6.91
2019-01-23T21:32:58.370Z,-6.96
2019-01-23T21:35:28.941Z,-6.94
2019-01-23T21:37:59.523Z,-6.98
2019-01-23T21:40:32.734Z,-6.96
2019-01-23T21:43:04.045Z,-7.01
2019-01-23T21:45:38.438Z,-7.07
2019-01-23T21:48:09.274Z,-7.15
2019-01-23T21:50:40.610Z,-7.26
2019-01-23T21:53:11.227Z,-7.26
2019-01-23T21:55:41.827Z,-7.22
2019-01-23T21:58:12.404Z,-7.30
2019-01-23T22:00:53.802Z,-7.23
